DETTK EDKB-EDKL
Flight info
| Callsign | DETTK |
|---|---|
| Flight time | 0h 12m |
| Altitude | |
| Route | |
| Aircraft | C172 |
Departure
| Time | 2026-04-26 17:36 |
|---|---|
| Airport | Bonn-Hangelar Airfield (EDKB) |
Arrival
| Time | 2026-04-26 17:48 |
|---|---|
| Airport | Leverkusen Airfield (EDKL) |
| Time | Latitude | Longitude | Altitude | Speed | Heading |
|---|---|---|---|---|---|
| 2026-04-26 17:36 | 50.74205 | 7.08135 | 2146 ft | 114 kts | 284° |
| 2026-04-26 17:36 | 50.74079 | 7.06905 | 2163 ft | 116 kts | 237° |
| 2026-04-26 17:36 | 50.73355 | 7.06537 | 2064 ft | 118 kts | 159° |
| 2026-04-26 17:36 | 50.72952 | 7.07485 | 1955 ft | 108 kts | 82° |
| 2026-04-26 17:37 | 50.73408 | 7.08252 | 1969 ft | 101 kts | 11° |
| 2026-04-26 17:37 | 50.74091 | 7.08098 | 2019 ft | 96 kts | 349° |
| 2026-04-26 17:37 | 50.74722 | 7.07809 | 2019 ft | 95 kts | 346° |
| 2026-04-26 17:38 | 50.76010 | 7.07252 | 1980 ft | 96 kts | 354° |
| 2026-04-26 17:38 | 50.76655 | 7.07419 | 1908 ft | 99 kts | 26° |
| 2026-04-26 17:38 | 50.77286 | 7.07837 | 1887 ft | 94 kts | 24° |
| 2026-04-26 17:38 | 50.77859 | 7.08250 | 1966 ft | 88 kts | 26° |
| 2026-04-26 17:39 | 50.78407 | 7.08599 | 2097 ft | 85 kts | 11° |
| 2026-04-26 17:39 | 50.78999 | 7.08586 | 2168 ft | 86 kts | 355° |
| 2026-04-26 17:39 | 50.79633 | 7.08431 | 2112 ft | 100 kts | 352° |
| 2026-04-26 17:39 | 50.80335 | 7.08236 | 2097 ft | 100 kts | 352° |
| 2026-04-26 17:40 | 50.81015 | 7.08079 | 2180 ft | 98 kts | 352° |
| 2026-04-26 17:40 | 50.81456 | 7.07897 | 2211 ft | 99 kts | 348° |
| 2026-04-26 17:40 | 50.82357 | 7.07535 | 2170 ft | 102 kts | 347° |
| 2026-04-26 17:40 | 50.83033 | 7.07212 | 2119 ft | 102 kts | 347° |
| 2026-04-26 17:41 | 50.83697 | 7.06918 | 2029 ft | 98 kts | 347° |
| 2026-04-26 17:41 | 50.84347 | 7.06643 | 1991 ft | 95 kts | 347° |
| 2026-04-26 17:41 | 50.85001 | 7.06404 | 1939 ft | 96 kts | 351° |
| 2026-04-26 17:41 | 50.85635 | 7.06192 | 1981 ft | 92 kts | 349° |
| 2026-04-26 17:42 | 50.86259 | 7.05931 | 2034 ft | 95 kts | 349° |
| 2026-04-26 17:42 | 50.86908 | 7.05668 | 2053 ft | 99 kts | 347° |
| 2026-04-26 17:42 | 50.87559 | 7.05432 | 2042 ft | 93 kts | 352° |
| 2026-04-26 17:42 | 50.88190 | 7.05231 | 1967 ft | 93 kts | 352° |
| 2026-04-26 17:43 | 50.88830 | 7.05028 | 1928 ft | 93 kts | 352° |
| 2026-04-26 17:43 | 50.89482 | 7.04843 | 1900 ft | 94 kts | 352° |
| 2026-04-26 17:43 | 50.90128 | 7.04687 | 1905 ft | 95 kts | 353° |
| 2026-04-26 17:43 | 50.90782 | 7.04490 | 1949 ft | 97 kts | 351° |
| 2026-04-26 17:44 | 50.91423 | 7.04218 | 2016 ft | 93 kts | 349° |
| 2026-04-26 17:44 | 50.92043 | 7.04010 | 1961 ft | 91 kts | 348° |
| 2026-04-26 17:44 | 50.92671 | 7.03725 | 1787 ft | 91 kts | 346° |
| 2026-04-26 17:44 | 50.93273 | 7.03397 | 1606 ft | 93 kts | 346° |
| 2026-04-26 17:45 | 50.93904 | 7.03184 | 1442 ft | 93 kts | 352° |
| 2026-04-26 17:45 | 50.94539 | 7.03039 | 1337 ft | 91 kts | 357° |
| 2026-04-26 17:45 | 50.95156 | 7.02978 | 1221 ft | 89 kts | 358° |
| 2026-04-26 17:45 | 50.95773 | 7.02899 | 1131 ft | 89 kts | 357° |
| 2026-04-26 17:46 | 50.96410 | 7.02844 | 1056 ft | 94 kts | 358° |
| 2026-04-26 17:46 | 50.97021 | 7.02826 | 967 ft | 80 kts | 359° |
| 2026-04-26 17:46 | 50.97557 | 7.02809 | 850 ft | 76 kts | 358° |
| 2026-04-26 17:46 | 50.98061 | 7.02773 | 768 ft | 70 kts | 356° |
| 2026-04-26 17:47 | 50.98550 | 7.02720 | 741 ft | 72 kts | 356° |
| 2026-04-26 17:47 | 50.98884 | 7.02672 | 732 ft | 76 kts | 353° |
| 2026-04-26 17:47 | 50.99562 | 7.02359 | 654 ft | 71 kts | 335° |
| 2026-04-26 17:47 | 50.99978 | 7.01984 | 512 ft | 67 kts | 332° |
| 2026-04-26 17:48 | 51.00365 | 7.01620 | 394 ft | 64 kts | 332° |
| 2026-04-26 17:48 | 51.00779 | 7.01270 | 290 ft | 70 kts | 331° |
| 2026-04-26 17:48 | 51.01193 | 7.00905 | 156 ft | 57 kts | 333° |
| 2026-04-26 17:48 | 51.01428 | 7.00698 | 159 ft | 24 kts | 331° |
| 2026-04-26 17:49 | 51.01531 | 7.00617 | 156 ft | 6 kts | 17° |
| 2026-04-26 17:49 | 51.01551 | 7.00659 | 155 ft | 5 kts | 61° |
| 2026-04-26 17:49 | 51.01579 | 7.00717 | 153 ft | 7 kts | 351° |
| 2026-04-26 17:49 | 51.01606 | 7.00684 | 154 ft | 3 kts | 241° |
| 2026-04-26 17:50 | 51.01599 | 7.00675 | 154 ft | 1 kts | 204° |
| 2026-04-26 17:50 | 51.01537 | 7.00708 | 155 ft | 13 kts | 150° |
| 2026-04-26 17:50 | 51.01470 | 7.00766 | 157 ft | 9 kts | 148° |
| 2026-04-26 17:50 | 51.01453 | 7.00765 | 157 ft | 0 kts | 242° |
| 2026-04-26 17:55 | 51.01450 | 7.00761 | 156 ft | 5 kts | 202° |
| 2026-04-26 17:55 | 51.01389 | 7.00731 | 159 ft | 11 kts | 152° |
| 2026-04-26 17:55 | 51.01340 | 7.00772 | 157 ft | 6 kts | 153° |
| 2026-04-26 17:55 | 51.01271 | 7.00827 | 156 ft | 15 kts | 155° |
| 2026-04-26 17:56 | 51.01167 | 7.00909 | 154 ft | 19 kts | 153° |
| 2026-04-26 17:56 | 51.01113 | 7.00977 | 151 ft | 0 kts | 331° |
| 2026-04-26 17:57 | 51.01396 | 7.00728 | 161 ft | 63 kts | 334° |
| 2026-04-26 17:57 | 51.01781 | 7.00337 | 390 ft | 64 kts | 326° |
| 2026-04-26 17:57 | 51.02133 | 6.99897 | 626 ft | 70 kts | 324° |
| 2026-04-26 17:57 | 51.02497 | 6.99406 | 891 ft | 65 kts | 324° |
| 2026-04-26 17:58 | 51.03566 | 6.97707 | 1538 ft | 91 kts | 317° |
| 2026-04-26 17:59 | 51.04325 | 6.95921 | 1859 ft | 105 kts | 283° |
| 2026-04-26 17:59 | 51.04393 | 6.94800 | 1989 ft | 102 kts | 279° |
| 2026-04-26 17:59 | 51.04423 | 6.93663 | 2001 ft | 105 kts | 277° |
| 2026-04-26 17:59 | 51.04479 | 6.92505 | 2050 ft | 103 kts | 282° |
| 2026-04-26 18:00 | 51.04629 | 6.91393 | 2131 ft | 101 kts | 305° |
| 2026-04-26 18:00 | 51.05064 | 6.90523 | 2141 ft | 100 kts | 316° |
| 2026-04-26 18:00 | 51.05506 | 6.89636 | 2214 ft | 106 kts | 307° |
| 2026-04-26 18:00 | 51.05541 | 6.88533 | 2364 ft | 111 kts | 239° |
| 2026-04-26 18:01 | 51.04848 | 6.88105 | 2326 ft | 113 kts | 174° |
| 2026-04-26 18:01 | 51.04073 | 6.88173 | 2456 ft | 109 kts | 172° |
| 2026-04-26 18:01 | 51.03331 | 6.88362 | 2413 ft | 110 kts | 166° |
| 2026-04-26 18:01 | 51.02565 | 6.88603 | 2428 ft | 111 kts | 167° |
| 2026-04-26 18:02 | 51.02070 | 6.88761 | 2346 ft | 109 kts | 168° |
| 2026-04-26 18:02 | 51.01551 | 6.88899 | 2147 ft | 113 kts | 170° |
| 2026-04-26 18:02 | 51.00506 | 6.89106 | 2009 ft | 113 kts | 172° |
| 2026-04-26 18:02 | 50.99758 | 6.89393 | 1943 ft | 108 kts | 154° |
| 2026-04-26 18:03 | 50.99065 | 6.89834 | 1893 ft | 107 kts | 158° |
| 2026-04-26 18:03 | 50.98358 | 6.90210 | 1896 ft | 105 kts | 160° |
| 2026-04-26 18:03 | 50.97652 | 6.90571 | 2035 ft | 103 kts | 155° |
| 2026-04-26 18:03 | 50.96990 | 6.91011 | 2287 ft | 106 kts | 153° |
| 2026-04-26 18:04 | 50.96295 | 6.91488 | 2348 ft | 109 kts | 153° |
| 2026-04-26 18:04 | 50.95604 | 6.91896 | 2379 ft | 99 kts | 158° |
| 2026-04-26 18:04 | 50.94997 | 6.92251 | 2364 ft | 86 kts | 155° |
| 2026-04-26 18:05 | 50.93953 | 6.93047 | 2376 ft | 81 kts | 143° |
| 2026-04-26 18:05 | 50.93519 | 6.93614 | 2359 ft | 79 kts | 125° |
| 2026-04-26 18:05 | 50.93213 | 6.94348 | 2362 ft | 75 kts | 105° |
| 2026-04-26 18:05 | 50.93146 | 6.95157 | 2283 ft | 76 kts | 88° |
| 2026-04-26 18:06 | 50.93236 | 6.95957 | 2287 ft | 72 kts | 60° |
| 2026-04-26 18:06 | 50.93542 | 6.96602 | 2258 ft | 74 kts | 41° |
| 2026-04-26 18:06 | 50.93974 | 6.96922 | 2293 ft | 68 kts | 4° |
| 2026-04-26 18:06 | 50.94424 | 6.96655 | 2245 ft | 75 kts | 329° |
| 2026-04-26 18:07 | 50.94785 | 6.96061 | 2211 ft | 78 kts | 298° |
| 2026-04-26 18:07 | 50.94724 | 6.95221 | 2182 ft | 84 kts | 244° |
| 2026-04-26 18:07 | 50.94284 | 6.94593 | 2205 ft | 87 kts | 201° |
| 2026-04-26 18:07 | 50.93880 | 6.94600 | 2155 ft | 89 kts | 155° |
| 2026-04-26 18:08 | 50.93085 | 6.95290 | 2144 ft | 108 kts | 149° |
| 2026-04-26 18:08 | 50.92414 | 6.95927 | 2049 ft | 114 kts | 143° |
| 2026-04-26 18:08 | 50.91775 | 6.96605 | 2012 ft | 108 kts | 142° |
| 2026-04-26 18:08 | 50.91181 | 6.97301 | 2015 ft | 105 kts | 138° |
| 2026-04-26 18:09 | 50.90603 | 6.98019 | 1964 ft | 106 kts | 138° |
| 2026-04-26 18:09 | 50.90036 | 6.98737 | 1960 ft | 102 kts | 138° |
| 2026-04-26 18:09 | 50.89486 | 6.99435 | 1959 ft | 100 kts | 136° |
| 2026-04-26 18:09 | 50.88971 | 7.00157 | 1969 ft | 97 kts | 133° |
| 2026-04-26 18:10 | 50.88467 | 7.00889 | 1953 ft | 99 kts | 133° |
| 2026-04-26 18:10 | 50.87988 | 7.01635 | 1977 ft | 97 kts | 122° |
| 2026-04-26 18:10 | 50.87710 | 7.02634 | 1835 ft | 101 kts | 105° |
| 2026-04-26 18:10 | 50.87481 | 7.03678 | 1723 ft | 101 kts | 106° |
| 2026-04-26 18:11 | 50.87240 | 7.04725 | 1619 ft | 101 kts | 105° |
| 2026-04-26 18:11 | 50.87001 | 7.05770 | 1475 ft | 99 kts | 105° |
| 2026-04-26 18:11 | 50.86787 | 7.06795 | 1351 ft | 99 kts | 103° |
| 2026-04-26 18:11 | 50.86587 | 7.07844 | 1244 ft | 100 kts | 101° |
| 2026-04-26 18:12 | 50.86415 | 7.08899 | 1235 ft | 99 kts | 100° |
| 2026-04-26 18:12 | 50.86260 | 7.09973 | 1170 ft | 99 kts | 101° |
| 2026-04-26 18:12 | 50.85915 | 7.10861 | 1165 ft | 95 kts | 133° |
| 2026-04-26 18:12 | 50.85410 | 7.11563 | 1096 ft | 98 kts | 138° |
| 2026-04-26 18:13 | 50.84916 | 7.12242 | 1114 ft | 90 kts | 136° |
| 2026-04-26 18:13 | 50.84458 | 7.12920 | 1044 ft | 89 kts | 137° |
| 2026-04-26 18:13 | 50.84203 | 7.13745 | 985 ft | 84 kts | 78° |
| 2026-04-26 18:13 | 50.84393 | 7.14253 | 852 ft | 82 kts | 41° |
| 2026-04-26 18:14 | 50.84989 | 7.14876 | 695 ft | 76 kts | 352° |
| 2026-04-26 18:14 | 50.85463 | 7.14442 | 433 ft | 80 kts | 319° |
| 2026-04-26 18:14 | 50.85831 | 7.13905 | 319 ft | 67 kts | 320° |
| 2026-04-26 18:14 | 50.86168 | 7.13416 | 280 ft | 64 kts | 319° |
| 2026-04-26 18:15 | 50.86482 | 7.12956 | 265 ft | 61 kts | 319° |
| 2026-04-26 18:15 | 50.86793 | 7.12505 | 278 ft | 64 kts | 317° |
| 2026-04-26 18:15 | 50.87121 | 7.11973 | 488 ft | 68 kts | 314° |
| 2026-04-26 18:15 | 50.87448 | 7.11403 | 695 ft | 72 kts | 316° |
| 2026-04-26 18:16 | 50.87744 | 7.10729 | 929 ft | 78 kts | 284° |
| 2026-04-26 18:16 | 50.87336 | 7.08946 | 1282 ft | 95 kts | 215° |
| 2026-04-26 18:16 | 50.86727 | 7.09082 | 1284 ft | 96 kts | 135° |
| 2026-04-26 18:17 | 50.86252 | 7.09847 | 1266 ft | 101 kts | 134° |
| 2026-04-26 18:17 | 50.85744 | 7.10585 | 1348 ft | 99 kts | 137° |
| 2026-04-26 18:17 | 50.85227 | 7.11302 | 1426 ft | 94 kts | 121° |
| 2026-04-26 18:17 | 50.84967 | 7.12222 | 1500 ft | 94 kts | 103° |
| 2026-04-26 18:18 | 50.84832 | 7.13209 | 1593 ft | 89 kts | 94° |
| 2026-04-26 18:18 | 50.84929 | 7.14159 | 1667 ft | 91 kts | 62° |
| 2026-04-26 18:18 | 50.85238 | 7.15045 | 1688 ft | 91 kts | 57° |
| 2026-04-26 18:18 | 50.85574 | 7.15884 | 1578 ft | 92 kts | 56° |
| 2026-04-26 18:19 | 50.85913 | 7.16716 | 1642 ft | 87 kts | 55° |
| 2026-04-26 18:19 | 50.86246 | 7.17491 | 1579 ft | 83 kts | 53° |
| 2026-04-26 18:19 | 50.86544 | 7.18247 | 1553 ft | 78 kts | 57° |
| 2026-04-26 18:19 | 50.86815 | 7.18987 | 1465 ft | 80 kts | 57° |
| 2026-04-26 18:20 | 50.87114 | 7.19742 | 1391 ft | 80 kts | 47° |
| 2026-04-26 18:20 | 50.87605 | 7.20069 | 1306 ft | 81 kts | 359° |
| 2026-04-26 18:20 | 50.88085 | 7.19696 | 1219 ft | 77 kts | 319° |
| 2026-04-26 18:20 | 50.88185 | 7.19190 | 1185 ft | 80 kts | 256° |
| 2026-04-26 18:21 | 50.87744 | 7.18091 | 840 ft | 90 kts | 249° |
| 2026-04-26 18:21 | 50.87476 | 7.17215 | 609 ft | 86 kts | 249° |
| 2026-04-26 18:21 | 50.87235 | 7.16416 | 460 ft | 74 kts | 250° |
| 2026-04-26 18:21 | 50.87016 | 7.15695 | 330 ft | 71 kts | 251° |
| 2026-04-26 18:22 | 50.86803 | 7.14995 | 295 ft | 68 kts | 251° |
| 2026-04-26 18:22 | 50.86597 | 7.14300 | 309 ft | 71 kts | 253° |
| 2026-04-26 18:22 | 50.86374 | 7.13565 | 383 ft | 77 kts | 250° |
| 2026-04-26 18:22 | 50.86090 | 7.12798 | 586 ft | 85 kts | 223° |
| 2026-04-26 18:23 | 50.85480 | 7.12524 | 721 ft | 99 kts | 189° |
| 2026-04-26 18:23 | 50.84796 | 7.12386 | 770 ft | 100 kts | 191° |
| 2026-04-26 18:23 | 50.84096 | 7.12340 | 784 ft | 99 kts | 181° |
| 2026-04-26 18:23 | 50.83411 | 7.12202 | 793 ft | 102 kts | 204° |
| 2026-04-26 18:24 | 50.82764 | 7.11742 | 796 ft | 105 kts | 206° |